sensor_id;sensor_type;location;lat;lon;timestamp;P1;durP1;ratioP1;P2;durP2;ratioP2
5052;SDS011;2545;50.892;5.740;2022-11-14T00:00:23;16.50;;;9.33;;
5052;SDS011;2545;50.892;5.740;2022-11-14T00:02:48;18.63;;;9.77;;
5052;SDS011;2545;50.892;5.740;2022-11-14T00:05:14;12.63;;;8.27;;
5052;SDS011;2545;50.892;5.740;2022-11-14T00:07:39;13.40;;;9.70;;
5052;SDS011;2545;50.892;5.740;2022-11-14T00:10:04;12.97;;;8.80;;
5052;SDS011;2545;50.892;5.740;2022-11-14T00:12:30;14.27;;;8.17;;
5052;SDS011;2545;50.892;5.740;2022-11-14T00:14:55;14.80;;;8.40;;
5052;SDS011;2545;50.892;5.740;2022-11-14T00:17:21;10.70;;;8.10;;
5052;SDS011;2545;50.892;5.740;2022-11-14T00:19:46;11.83;;;8.10;;
5052;SDS011;2545;50.892;5.740;2022-11-14T00:22:11;13.83;;;8.60;;
5052;SDS011;2545;50.892;5.740;2022-11-14T00:24:37;13.70;;;8.27;;
5052;SDS011;2545;50.892;5.740;2022-11-14T00:27:02;13.77;;;9.13;;
5052;SDS011;2545;50.892;5.740;2022-11-14T00:29:27;14.70;;;9.03;;
5052;SDS011;2545;50.892;5.740;2022-11-14T00:31:53;14.30;;;8.37;;
5052;SDS011;2545;50.892;5.740;2022-11-14T00:34:18;16.27;;;8.07;;
5052;SDS011;2545;50.892;5.740;2022-11-14T00:36:43;17.00;;;9.60;;
5052;SDS011;2545;50.892;5.740;2022-11-14T00:39:12;13.93;;;9.13;;
5052;SDS011;2545;50.892;5.740;2022-11-14T00:41:38;13.20;;;8.67;;
5052;SDS011;2545;50.892;5.740;2022-11-14T00:44:07;14.37;;;9.17;;
5052;SDS011;2545;50.892;5.740;2022-11-14T00:46:32;14.07;;;8.80;;
5052;SDS011;2545;50.892;5.740;2022-11-14T00:48:59;13.20;;;8.20;;
5052;SDS011;2545;50.892;5.740;2022-11-14T00:51:24;10.77;;;8.33;;
5052;SDS011;2545;50.892;5.740;2022-11-14T00:53:49;20.63;;;9.77;;
5052;SDS011;2545;50.892;5.740;2022-11-14T00:56:15;12.57;;;8.27;;
5052;SDS011;2545;50.892;5.740;2022-11-14T00:58:40;12.30;;;9.00;;
5052;SDS011;2545;50.892;5.740;2022-11-14T01:01:05;12.33;;;8.77;;
5052;SDS011;2545;50.892;5.740;2022-11-14T01:03:31;13.77;;;8.93;;
5052;SDS011;2545;50.892;5.740;2022-11-14T01:05:56;15.97;;;9.27;;
5052;SDS011;2545;50.892;5.740;2022-11-14T01:08:21;14.40;;;8.37;;
5052;SDS011;2545;50.892;5.740;2022-11-14T01:10:48;12.63;;;8.80;;
5052;SDS011;2545;50.892;5.740;2022-11-14T01:13:15;15.23;;;9.40;;
5052;SDS011;2545;50.892;5.740;2022-11-14T01:15:43;14.10;;;7.60;;
5052;SDS011;2545;50.892;5.740;2022-11-14T01:18:11;13.17;;;8.80;;
5052;SDS011;2545;50.892;5.740;2022-11-14T01:20:43;11.43;;;8.87;;
5052;SDS011;2545;50.892;5.740;2022-11-14T01:23:10;14.37;;;9.17;;
5052;SDS011;2545;50.892;5.740;2022-11-14T01:25:37;15.17;;;8.83;;
5052;SDS011;2545;50.892;5.740;2022-11-14T01:28:06;16.03;;;9.70;;
5052;SDS011;2545;50.892;5.740;2022-11-14T01:30:33;14.83;;;7.83;;
5052;SDS011;2545;50.892;5.740;2022-11-14T01:32:58;14.13;;;9.57;;
5052;SDS011;2545;50.892;5.740;2022-11-14T01:35:24;11.90;;;7.97;;
5052;SDS011;2545;50.892;5.740;2022-11-14T01:37:49;13.50;;;8.63;;
5052;SDS011;2545;50.892;5.740;2022-11-14T01:40:15;14.43;;;7.43;;
5052;SDS011;2545;50.892;5.740;2022-11-14T01:42:40;13.40;;;8.90;;
5052;SDS011;2545;50.892;5.740;2022-11-14T01:48:12;13.20;;;8.60;;
5052;SDS011;2545;50.892;5.740;2022-11-14T01:50:44;11.30;;;8.10;;
5052;SDS011;2545;50.892;5.740;2022-11-14T01:53:09;10.40;;;7.63;;
5052;SDS011;2545;50.892;5.740;2022-11-14T01:55:35;11.63;;;7.73;;
5052;SDS011;2545;50.892;5.740;2022-11-14T01:58:00;10.80;;;7.70;;
5052;SDS011;2545;50.892;5.740;2022-11-14T02:00:25;9.73;;;7.60;;
5052;SDS011;2545;50.892;5.740;2022-11-14T02:02:51;14.73;;;9.17;;
5052;SDS011;2545;50.892;5.740;2022-11-14T02:05:17;11.63;;;8.07;;
5052;SDS011;2545;50.892;5.740;2022-11-14T02:07:43;9.33;;;6.97;;
5052;SDS011;2545;50.892;5.740;2022-11-14T02:10:13;16.10;;;8.47;;
5052;SDS011;2545;50.892;5.740;2022-11-14T02:12:42;12.20;;;8.20;;
5052;SDS011;2545;50.892;5.740;2022-11-14T02:15:09;12.80;;;8.70;;
5052;SDS011;2545;50.892;5.740;2022-11-14T02:17:35;11.33;;;7.83;;
5052;SDS011;2545;50.892;5.740;2022-11-14T02:22:36;17.50;;;7.97;;
5052;SDS011;2545;50.892;5.740;2022-11-14T02:25:02;11.10;;;7.47;;
5052;SDS011;2545;50.892;5.740;2022-11-14T02:27:28;8.53;;;6.70;;
5052;SDS011;2545;50.892;5.740;2022-11-14T02:30:02;9.43;;;6.50;;
5052;SDS011;2545;50.892;5.740;2022-11-14T02:32:31;16.63;;;6.57;;
5052;SDS011;2545;50.892;5.740;2022-11-14T02:34:56;8.80;;;6.67;;
5052;SDS011;2545;50.892;5.740;2022-11-14T02:37:22;8.77;;;5.93;;
5052;SDS011;2545;50.892;5.740;2022-11-14T02:39:47;8.93;;;6.03;;
5052;SDS011;2545;50.892;5.740;2022-11-14T02:42:12;12.30;;;6.23;;
5052;SDS011;2545;50.892;5.740;2022-11-14T02:44:37;8.23;;;5.87;;
5052;SDS011;2545;50.892;5.740;2022-11-14T02:47:03;8.40;;;6.00;;
5052;SDS011;2545;50.892;5.740;2022-11-14T02:49:28;6.80;;;5.57;;
5052;SDS011;2545;50.892;5.740;2022-11-14T02:51:53;10.23;;;6.57;;
5052;SDS011;2545;50.892;5.740;2022-11-14T02:54:19;9.80;;;5.73;;
5052;SDS011;2545;50.892;5.740;2022-11-14T02:56:44;12.90;;;5.87;;
5052;SDS011;2545;50.892;5.740;2022-11-14T02:59:09;9.20;;;6.50;;
5052;SDS011;2545;50.892;5.740;2022-11-14T03:01:34;10.00;;;5.80;;
5052;SDS011;2545;50.892;5.740;2022-11-14T03:04:00;8.17;;;6.17;;
5052;SDS011;2545;50.892;5.740;2022-11-14T03:06:25;13.43;;;6.10;;
5052;SDS011;2545;50.892;5.740;2022-11-14T03:08:50;10.10;;;6.20;;
5052;SDS011;2545;50.892;5.740;2022-11-14T03:11:16;9.10;;;5.70;;
5052;SDS011;2545;50.892;5.740;2022-11-14T03:13:41;7.70;;;5.37;;
5052;SDS011;2545;50.892;5.740;2022-11-14T03:16:07;8.37;;;5.97;;
5052;SDS011;2545;50.892;5.740;2022-11-14T03:18:34;11.07;;;6.73;;
5052;SDS011;2545;50.892;5.740;2022-11-14T03:21:06;10.33;;;6.43;;
5052;SDS011;2545;50.892;5.740;2022-11-14T03:23:33;10.00;;;6.10;;
5052;SDS011;2545;50.892;5.740;2022-11-14T03:25:59;8.53;;;5.90;;
5052;SDS011;2545;50.892;5.740;2022-11-14T03:28:26;8.60;;;6.10;;
5052;SDS011;2545;50.892;5.740;2022-11-14T03:30:51;7.37;;;5.57;;
5052;SDS011;2545;50.892;5.740;2022-11-14T03:33:17;8.80;;;6.40;;
5052;SDS011;2545;50.892;5.740;2022-11-14T03:35:42;11.77;;;5.77;;
5052;SDS011;2545;50.892;5.740;2022-11-14T03:38:07;9.07;;;6.27;;
5052;SDS011;2545;50.892;5.740;2022-11-14T03:40:33;7.80;;;5.83;;
5052;SDS011;2545;50.892;5.740;2022-11-14T03:42:58;9.77;;;6.93;;
5052;SDS011;2545;50.892;5.740;2022-11-14T03:45:23;13.30;;;6.63;;
5052;SDS011;2545;50.892;5.740;2022-11-14T03:47:48;9.30;;;7.20;;
5052;SDS011;2545;50.892;5.740;2022-11-14T03:50:14;12.10;;;6.30;;
5052;SDS011;2545;50.892;5.740;2022-11-14T03:52:39;7.57;;;5.80;;
5052;SDS011;2545;50.892;5.740;2022-11-14T03:55:04;8.77;;;6.57;;
5052;SDS011;2545;50.892;5.740;2022-11-14T03:57:30;9.67;;;7.60;;
5052;SDS011;2545;50.892;5.740;2022-11-14T03:59:55;11.80;;;7.57;;
5052;SDS011;2545;50.892;5.740;2022-11-14T04:02:21;10.13;;;6.10;;
5052;SDS011;2545;50.892;5.740;2022-11-14T04:04:46;11.07;;;7.50;;
5052;SDS011;2545;50.892;5.740;2022-11-14T04:07:11;7.47;;;5.60;;
5052;SDS011;2545;50.892;5.740;2022-11-14T04:09:37;8.87;;;6.47;;
5052;SDS011;2545;50.892;5.740;2022-11-14T04:12:02;7.97;;;5.30;;
5052;SDS011;2545;50.892;5.740;2022-11-14T04:14:27;24.10;;;6.20;;
5052;SDS011;2545;50.892;5.740;2022-11-14T04:16:53;8.60;;;6.33;;
5052;SDS011;2545;50.892;5.740;2022-11-14T04:19:18;8.80;;;6.00;;
5052;SDS011;2545;50.892;5.740;2022-11-14T04:21:43;8.00;;;6.27;;
5052;SDS011;2545;50.892;5.740;2022-11-14T04:24:08;10.80;;;6.00;;
5052;SDS011;2545;50.892;5.740;2022-11-14T04:26:34;11.67;;;6.40;;
5052;SDS011;2545;50.892;5.740;2022-11-14T04:28:59;12.00;;;7.33;;
5052;SDS011;2545;50.892;5.740;2022-11-14T04:31:24;8.20;;;6.40;;
5052;SDS011;2545;50.892;5.740;2022-11-14T04:33:49;7.83;;;5.97;;
5052;SDS011;2545;50.892;5.740;2022-11-14T04:36:15;10.90;;;6.60;;
5052;SDS011;2545;50.892;5.740;2022-11-14T04:38:40;13.00;;;6.80;;
5052;SDS011;2545;50.892;5.740;2022-11-14T04:41:06;10.00;;;6.50;;
5052;SDS011;2545;50.892;5.740;2022-11-14T04:43:31;9.90;;;7.17;;
5052;SDS011;2545;50.892;5.740;2022-11-14T04:45:56;8.17;;;6.03;;
5052;SDS011;2545;50.892;5.740;2022-11-14T04:48:22;8.67;;;6.37;;
5052;SDS011;2545;50.892;5.740;2022-11-14T04:50:47;8.93;;;6.73;;
5052;SDS011;2545;50.892;5.740;2022-11-14T04:53:12;8.70;;;6.40;;
5052;SDS011;2545;50.892;5.740;2022-11-14T04:55:38;9.63;;;6.27;;
5052;SDS011;2545;50.892;5.740;2022-11-14T04:58:03;9.67;;;6.90;;
5052;SDS011;2545;50.892;5.740;2022-11-14T05:00:28;9.83;;;6.43;;
5052;SDS011;2545;50.892;5.740;2022-11-14T05:02:54;10.13;;;6.57;;
5052;SDS011;2545;50.892;5.740;2022-11-14T05:05:19;9.40;;;6.83;;
5052;SDS011;2545;50.892;5.740;2022-11-14T05:07:44;11.23;;;6.73;;
5052;SDS011;2545;50.892;5.740;2022-11-14T05:10:09;11.20;;;6.00;;
5052;SDS011;2545;50.892;5.740;2022-11-14T05:12:35;8.40;;;6.10;;
5052;SDS011;2545;50.892;5.740;2022-11-14T05:15:00;8.10;;;5.77;;
5052;SDS011;2545;50.892;5.740;2022-11-14T05:17:26;11.67;;;6.50;;
5052;SDS011;2545;50.892;5.740;2022-11-14T05:19:52;8.83;;;5.50;;
5052;SDS011;2545;50.892;5.740;2022-11-14T05:22:17;8.97;;;6.40;;
5052;SDS011;2545;50.892;5.740;2022-11-14T05:24:43;7.60;;;5.90;;
5052;SDS011;2545;50.892;5.740;2022-11-14T05:27:08;9.77;;;5.50;;
5052;SDS011;2545;50.892;5.740;2022-11-14T05:29:33;15.13;;;6.33;;
5052;SDS011;2545;50.892;5.740;2022-11-14T05:31:59;8.03;;;5.60;;
5052;SDS011;2545;50.892;5.740;2022-11-14T05:34:25;10.73;;;6.00;;
5052;SDS011;2545;50.892;5.740;2022-11-14T05:36:50;11.03;;;6.00;;
5052;SDS011;2545;50.892;5.740;2022-11-14T05:39:15;7.03;;;5.57;;
5052;SDS011;2545;50.892;5.740;2022-11-14T05:41:41;7.37;;;5.80;;
5052;SDS011;2545;50.892;5.740;2022-11-14T05:44:06;8.03;;;5.50;;
5052;SDS011;2545;50.892;5.740;2022-11-14T05:46:31;7.43;;;5.30;;
5052;SDS011;2545;50.892;5.740;2022-11-14T05:48:57;7.77;;;5.23;;
5052;SDS011;2545;50.892;5.740;2022-11-14T05:51:22;9.53;;;6.23;;
5052;SDS011;2545;50.892;5.740;2022-11-14T05:53:48;13.43;;;5.20;;
5052;SDS011;2545;50.892;5.740;2022-11-14T05:56:13;8.30;;;5.90;;
5052;SDS011;2545;50.892;5.740;2022-11-14T05:58:38;8.90;;;6.20;;
5052;SDS011;2545;50.892;5.740;2022-11-14T06:01:12;9.20;;;5.83;;
5052;SDS011;2545;50.892;5.740;2022-11-14T06:03:40;10.13;;;5.80;;
5052;SDS011;2545;50.892;5.740;2022-11-14T06:06:08;8.10;;;6.13;;
5052;SDS011;2545;50.892;5.740;2022-11-14T06:08:35;10.43;;;5.30;;
5052;SDS011;2545;50.892;5.740;2022-11-14T06:11:04;10.77;;;6.03;;
5052;SDS011;2545;50.892;5.740;2022-11-14T06:13:31;13.73;;;5.90;;
5052;SDS011;2545;50.892;5.740;2022-11-14T06:16:00;12.80;;;5.30;;
5052;SDS011;2545;50.892;5.740;2022-11-14T06:18:28;7.10;;;5.57;;
5052;SDS011;2545;50.892;5.740;2022-11-14T06:20:57;7.30;;;5.13;;
5052;SDS011;2545;50.892;5.740;2022-11-14T06:23:34;13.13;;;5.10;;
5052;SDS011;2545;50.892;5.740;2022-11-14T06:26:00;7.17;;;5.53;;
5052;SDS011;2545;50.892;5.740;2022-11-14T06:28:27;8.57;;;6.43;;
5052;SDS011;2545;50.892;5.740;2022-11-14T06:30:56;11.60;;;6.23;;
5052;SDS011;2545;50.892;5.740;2022-11-14T06:33:23;10.13;;;5.63;;
5052;SDS011;2545;50.892;5.740;2022-11-14T06:35:48;6.60;;;5.27;;
5052;SDS011;2545;50.892;5.740;2022-11-14T06:38:13;8.40;;;5.67;;
5052;SDS011;2545;50.892;5.740;2022-11-14T06:40:38;10.57;;;6.23;;
5052;SDS011;2545;50.892;5.740;2022-11-14T06:43:04;11.03;;;7.27;;
5052;SDS011;2545;50.892;5.740;2022-11-14T06:45:29;25.53;;;6.03;;
5052;SDS011;2545;50.892;5.740;2022-11-14T06:47:57;9.47;;;6.73;;
5052;SDS011;2545;50.892;5.740;2022-11-14T06:50:23;10.97;;;6.80;;
5052;SDS011;2545;50.892;5.740;2022-11-14T06:52:48;10.43;;;5.70;;
5052;SDS011;2545;50.892;5.740;2022-11-14T06:55:14;10.23;;;6.10;;
5052;SDS011;2545;50.892;5.740;2022-11-14T06:57:39;8.43;;;5.80;;
5052;SDS011;2545;50.892;5.740;2022-11-14T07:00:04;9.43;;;6.50;;
5052;SDS011;2545;50.892;5.740;2022-11-14T07:02:30;11.27;;;7.23;;
5052;SDS011;2545;50.892;5.740;2022-11-14T07:04:55;10.50;;;6.57;;
5052;SDS011;2545;50.892;5.740;2022-11-14T07:07:21;10.43;;;6.90;;
5052;SDS011;2545;50.892;5.740;2022-11-14T07:09:46;12.27;;;6.20;;
5052;SDS011;2545;50.892;5.740;2022-11-14T07:12:11;7.63;;;5.33;;
5052;SDS011;2545;50.892;5.740;2022-11-14T07:14:37;14.70;;;6.10;;
5052;SDS011;2545;50.892;5.740;2022-11-14T07:17:02;10.53;;;6.00;;
5052;SDS011;2545;50.892;5.740;2022-11-14T07:19:27;15.53;;;6.30;;
5052;SDS011;2545;50.892;5.740;2022-11-14T07:21:52;8.00;;;5.70;;
5052;SDS011;2545;50.892;5.740;2022-11-14T07:24:18;7.60;;;5.37;;
5052;SDS011;2545;50.892;5.740;2022-11-14T07:26:44;11.57;;;6.17;;
5052;SDS011;2545;50.892;5.740;2022-11-14T07:29:10;8.00;;;4.90;;
5052;SDS011;2545;50.892;5.740;2022-11-14T07:31:35;11.53;;;6.30;;
5052;SDS011;2545;50.892;5.740;2022-11-14T07:34:00;9.97;;;5.93;;
5052;SDS011;2545;50.892;5.740;2022-11-14T07:36:26;10.40;;;5.80;;
5052;SDS011;2545;50.892;5.740;2022-11-14T07:38:51;6.73;;;5.03;;
5052;SDS011;2545;50.892;5.740;2022-11-14T07:41:17;7.80;;;5.50;;
5052;SDS011;2545;50.892;5.740;2022-11-14T07:43:42;8.00;;;5.43;;
5052;SDS011;2545;50.892;5.740;2022-11-14T07:46:12;9.03;;;5.87;;
5052;SDS011;2545;50.892;5.740;2022-11-14T07:48:39;9.17;;;6.07;;
5052;SDS011;2545;50.892;5.740;2022-11-14T07:51:06;10.67;;;6.73;;
5052;SDS011;2545;50.892;5.740;2022-11-14T07:53:33;19.23;;;7.20;;
5052;SDS011;2545;50.892;5.740;2022-11-14T07:56:04;15.90;;;7.87;;
5052;SDS011;2545;50.892;5.740;2022-11-14T07:58:31;10.00;;;6.90;;
5052;SDS011;2545;50.892;5.740;2022-11-14T08:00:59;7.00;;;5.60;;
5052;SDS011;2545;50.892;5.740;2022-11-14T08:03:26;11.53;;;6.63;;
5052;SDS011;2545;50.892;5.740;2022-11-14T08:05:58;8.80;;;6.90;;
5052;SDS011;2545;50.892;5.740;2022-11-14T08:08:28;15.60;;;7.80;;
5052;SDS011;2545;50.892;5.740;2022-11-14T08:10:57;15.23;;;8.10;;
5052;SDS011;2545;50.892;5.740;2022-11-14T08:13:23;13.20;;;7.83;;
5052;SDS011;2545;50.892;5.740;2022-11-14T08:15:50;11.00;;;6.80;;
5052;SDS011;2545;50.892;5.740;2022-11-14T08:18:15;7.50;;;6.00;;
5052;SDS011;2545;50.892;5.740;2022-11-14T08:20:40;6.20;;;5.30;;
5052;SDS011;2545;50.892;5.740;2022-11-14T08:23:06;9.70;;;4.83;;
5052;SDS011;2545;50.892;5.740;2022-11-14T08:25:32;8.97;;;6.00;;
5052;SDS011;2545;50.892;5.740;2022-11-14T08:27:57;11.30;;;6.47;;
5052;SDS011;2545;50.892;5.740;2022-11-14T08:30:22;11.13;;;5.70;;
5052;SDS011;2545;50.892;5.740;2022-11-14T08:32:48;12.80;;;6.03;;
5052;SDS011;2545;50.892;5.740;2022-11-14T08:35:14;10.80;;;6.37;;
5052;SDS011;2545;50.892;5.740;2022-11-14T08:37:39;10.17;;;5.43;;
5052;SDS011;2545;50.892;5.740;2022-11-14T08:40:04;10.70;;;6.70;;
5052;SDS011;2545;50.892;5.740;2022-11-14T08:42:30;9.50;;;6.90;;
5052;SDS011;2545;50.892;5.740;2022-11-14T08:44:56;8.20;;;5.67;;
5052;SDS011;2545;50.892;5.740;2022-11-14T08:47:21;15.93;;;6.90;;
5052;SDS011;2545;50.892;5.740;2022-11-14T08:49:46;8.57;;;5.93;;
5052;SDS011;2545;50.892;5.740;2022-11-14T08:52:11;10.80;;;6.70;;
5052;SDS011;2545;50.892;5.740;2022-11-14T08:54:37;9.03;;;6.20;;
5052;SDS011;2545;50.892;5.740;2022-11-14T08:57:02;10.20;;;6.70;;
5052;SDS011;2545;50.892;5.740;2022-11-14T08:59:29;9.70;;;6.50;;
5052;SDS011;2545;50.892;5.740;2022-11-14T09:01:54;10.10;;;6.20;;
5052;SDS011;2545;50.892;5.740;2022-11-14T09:04:20;16.80;;;7.30;;
5052;SDS011;2545;50.892;5.740;2022-11-14T09:06:45;13.20;;;7.10;;
5052;SDS011;2545;50.892;5.740;2022-11-14T09:09:10;24.57;;;8.20;;
5052;SDS011;2545;50.892;5.740;2022-11-14T09:11:36;16.90;;;8.53;;
5052;SDS011;2545;50.892;5.740;2022-11-14T09:14:01;12.93;;;7.20;;
5052;SDS011;2545;50.892;5.740;2022-11-14T09:16:26;16.00;;;7.10;;
5052;SDS011;2545;50.892;5.740;2022-11-14T09:18:52;13.27;;;7.87;;
5052;SDS011;2545;50.892;5.740;2022-11-14T09:21:17;13.93;;;7.67;;
5052;SDS011;2545;50.892;5.740;2022-11-14T09:23:45;18.67;;;7.87;;
5052;SDS011;2545;50.892;5.740;2022-11-14T09:26:11;16.17;;;8.37;;
5052;SDS011;2545;50.892;5.740;2022-11-14T09:28:36;37.90;;;9.00;;
5052;SDS011;2545;50.892;5.740;2022-11-14T09:31:02;20.70;;;7.87;;
5052;SDS011;2545;50.892;5.740;2022-11-14T09:33:29;17.50;;;6.80;;
5052;SDS011;2545;50.892;5.740;2022-11-14T09:35:55;12.87;;;8.47;;
5052;SDS011;2545;50.892;5.740;2022-11-14T09:38:21;15.97;;;7.83;;
5052;SDS011;2545;50.892;5.740;2022-11-14T09:46:10;16.97;;;8.60;;
5052;SDS011;2545;50.892;5.740;2022-11-14T09:48:50;22.00;;;9.97;;
5052;SDS011;2545;50.892;5.740;2022-11-14T09:51:32;22.67;;;9.90;;
5052;SDS011;2545;50.892;5.740;2022-11-14T09:54:18;24.93;;;9.23;;
5052;SDS011;2545;50.892;5.740;2022-11-14T09:56:47;17.23;;;7.87;;
5052;SDS011;2545;50.892;5.740;2022-11-14T09:59:12;20.60;;;10.20;;
5052;SDS011;2545;50.892;5.740;2022-11-14T10:04:24;20.73;;;9.40;;
5052;SDS011;2545;50.892;5.740;2022-11-14T10:10:12;34.97;;;10.73;;
5052;SDS011;2545;50.892;5.740;2022-11-14T10:26:27;25.07;;;13.93;;
5052;SDS011;2545;50.892;5.740;2022-11-14T10:40:38;32.10;;;14.17;;
5052;SDS011;2545;50.892;5.740;2022-11-14T10:45:51;23.40;;;12.97;;
5052;SDS011;2545;50.892;5.740;2022-11-14T10:48:27;26.43;;;13.80;;
5052;SDS011;2545;50.892;5.740;2022-11-14T10:51:05;26.60;;;14.33;;
5052;SDS011;2545;50.892;5.740;2022-11-14T10:56:07;24.77;;;12.57;;
5052;SDS011;2545;50.892;5.740;2022-11-14T10:58:35;24.13;;;11.87;;
5052;SDS011;2545;50.892;5.740;2022-11-14T11:06:42;23.00;;;13.10;;
5052;SDS011;2545;50.892;5.740;2022-11-14T11:09:08;21.27;;;11.97;;
5052;SDS011;2545;50.892;5.740;2022-11-14T11:11:58;25.70;;;12.60;;
5052;SDS011;2545;50.892;5.740;2022-11-14T11:14:28;26.07;;;13.00;;
5052;SDS011;2545;50.892;5.740;2022-11-14T11:19:39;18.57;;;12.10;;
5052;SDS011;2545;50.892;5.740;2022-11-14T11:25:10;26.50;;;13.40;;
5052;SDS011;2545;50.892;5.740;2022-11-14T11:27:48;19.10;;;10.70;;
5052;SDS011;2545;50.892;5.740;2022-11-14T11:30:29;31.40;;;12.20;;
5052;SDS011;2545;50.892;5.740;2022-11-14T11:32:54;23.00;;;12.80;;
5052;SDS011;2545;50.892;5.740;2022-11-14T11:35:19;18.97;;;11.27;;
5052;SDS011;2545;50.892;5.740;2022-11-14T11:37:48;21.00;;;11.60;;
5052;SDS011;2545;50.892;5.740;2022-11-14T11:40:24;19.40;;;10.83;;
5052;SDS011;2545;50.892;5.740;2022-11-14T11:42:56;34.00;;;13.00;;
5052;SDS011;2545;50.892;5.740;2022-11-14T11:45:43;22.03;;;11.63;;
5052;SDS011;2545;50.892;5.740;2022-11-14T11:48:16;25.80;;;13.00;;
5052;SDS011;2545;50.892;5.740;2022-11-14T11:50:43;24.30;;;11.57;;
5052;SDS011;2545;50.892;5.740;2022-11-14T11:55:43;21.97;;;12.37;;
5052;SDS011;2545;50.892;5.740;2022-11-14T11:58:14;20.57;;;12.37;;
5052;SDS011;2545;50.892;5.740;2022-11-14T12:00:46;18.13;;;10.50;;
5052;SDS011;2545;50.892;5.740;2022-11-14T12:03:12;20.20;;;11.47;;
5052;SDS011;2545;50.892;5.740;2022-11-14T12:08:10;19.30;;;11.37;;
5052;SDS011;2545;50.892;5.740;2022-11-14T12:11:03;18.30;;;11.33;;
5052;SDS011;2545;50.892;5.740;2022-11-14T12:30:28;8.80;;;6.00;;
5052;SDS011;2545;50.892;5.740;2022-11-14T12:32:58;7.47;;;5.03;;
5052;SDS011;2545;50.892;5.740;2022-11-14T12:35:31;9.23;;;5.77;;
5052;SDS011;2545;50.892;5.740;2022-11-14T12:37:58;7.50;;;4.07;;
5052;SDS011;2545;50.892;5.740;2022-11-14T12:40:28;6.20;;;4.00;;
5052;SDS011;2545;50.892;5.740;2022-11-14T12:42:56;6.73;;;4.63;;
5052;SDS011;2545;50.892;5.740;2022-11-14T12:50:53;8.30;;;4.40;;
5052;SDS011;2545;50.892;5.740;2022-11-14T13:09:38;5.27;;;3.93;;
5052;SDS011;2545;50.892;5.740;2022-11-14T13:15:49;6.80;;;4.80;;
5052;SDS011;2545;50.892;5.740;2022-11-14T13:21:04;9.13;;;4.93;;
5052;SDS011;2545;50.892;5.740;2022-11-14T13:23:58;9.03;;;5.27;;
5052;SDS011;2545;50.892;5.740;2022-11-14T13:28:49;7.30;;;5.43;;
5052;SDS011;2545;50.892;5.740;2022-11-14T13:33:47;9.60;;;5.50;;
5052;SDS011;2545;50.892;5.740;2022-11-14T13:41:58;9.73;;;5.60;;
5052;SDS011;2545;50.892;5.740;2022-11-14T13:47:47;9.97;;;6.20;;
5052;SDS011;2545;50.892;5.740;2022-11-14T13:50:30;13.27;;;5.63;;
5052;SDS011;2545;50.892;5.740;2022-11-14T13:52:59;8.43;;;5.93;;
5052;SDS011;2545;50.892;5.740;2022-11-14T13:55:44;7.90;;;5.50;;
5052;SDS011;2545;50.892;5.740;2022-11-14T14:01:18;10.00;;;6.30;;
5052;SDS011;2545;50.892;5.740;2022-11-14T14:07:06;10.53;;;5.93;;
5052;SDS011;2545;50.892;5.740;2022-11-14T14:10:02;9.70;;;6.70;;
5052;SDS011;2545;50.892;5.740;2022-11-14T14:12:54;14.50;;;6.07;;
5052;SDS011;2545;50.892;5.740;2022-11-14T14:15:43;8.13;;;5.87;;
5052;SDS011;2545;50.892;5.740;2022-11-14T14:21:19;10.70;;;6.00;;
5052;SDS011;2545;50.892;5.740;2022-11-14T14:27:06;10.33;;;6.40;;
5052;SDS011;2545;50.892;5.740;2022-11-14T14:32:26;9.30;;;6.07;;
5052;SDS011;2545;50.892;5.740;2022-11-14T14:34:51;10.60;;;6.47;;
5052;SDS011;2545;50.892;5.740;2022-11-14T14:37:24;11.00;;;6.53;;
5052;SDS011;2545;50.892;5.740;2022-11-14T14:39:58;10.87;;;6.17;;
5052;SDS011;2545;50.892;5.740;2022-11-14T14:42:26;9.60;;;6.93;;
5052;SDS011;2545;50.892;5.740;2022-11-14T14:45:04;18.13;;;6.30;;
5052;SDS011;2545;50.892;5.740;2022-11-14T14:47:39;9.23;;;6.30;;
5052;SDS011;2545;50.892;5.740;2022-11-14T14:50:12;11.73;;;6.70;;
5052;SDS011;2545;50.892;5.740;2022-11-14T14:52:40;10.53;;;5.77;;
5052;SDS011;2545;50.892;5.740;2022-11-14T14:55:06;9.83;;;6.07;;
5052;SDS011;2545;50.892;5.740;2022-11-14T14:57:42;11.90;;;6.80;;
5052;SDS011;2545;50.892;5.740;2022-11-14T15:00:15;11.57;;;6.53;;
5052;SDS011;2545;50.892;5.740;2022-11-14T15:02:46;11.07;;;6.47;;
5052;SDS011;2545;50.892;5.740;2022-11-14T15:05:19;7.73;;;5.83;;
5052;SDS011;2545;50.892;5.740;2022-11-14T15:07:46;9.53;;;7.27;;
5052;SDS011;2545;50.892;5.740;2022-11-14T15:10:23;9.40;;;6.40;;
5052;SDS011;2545;50.892;5.740;2022-11-14T15:12:50;12.10;;;6.87;;
5052;SDS011;2545;50.892;5.740;2022-11-14T15:15:18;10.80;;;6.33;;
5052;SDS011;2545;50.892;5.740;2022-11-14T15:17:44;8.50;;;5.60;;
5052;SDS011;2545;50.892;5.740;2022-11-14T15:20:22;8.00;;;5.40;;
5052;SDS011;2545;50.892;5.740;2022-11-14T15:23:05;7.87;;;5.50;;
5052;SDS011;2545;50.892;5.740;2022-11-14T15:25:43;10.20;;;6.40;;
5052;SDS011;2545;50.892;5.740;2022-11-14T15:28:18;11.93;;;6.93;;
5052;SDS011;2545;50.892;5.740;2022-11-14T15:30:58;10.60;;;6.40;;
5052;SDS011;2545;50.892;5.740;2022-11-14T15:33:29;8.87;;;6.13;;
5052;SDS011;2545;50.892;5.740;2022-11-14T15:36:12;8.63;;;6.10;;
5052;SDS011;2545;50.892;5.740;2022-11-14T15:38:56;11.23;;;6.93;;
5052;SDS011;2545;50.892;5.740;2022-11-14T15:41:23;10.83;;;6.10;;
5052;SDS011;2545;50.892;5.740;2022-11-14T15:43:50;12.23;;;7.50;;
5052;SDS011;2545;50.892;5.740;2022-11-14T15:48:57;9.60;;;6.50;;
5052;SDS011;2545;50.892;5.740;2022-11-14T15:51:37;9.53;;;5.80;;
5052;SDS011;2545;50.892;5.740;2022-11-14T15:54:17;16.83;;;7.60;;
5052;SDS011;2545;50.892;5.740;2022-11-14T15:56:45;14.00;;;6.23;;
5052;SDS011;2545;50.892;5.740;2022-11-14T15:59:10;12.20;;;7.80;;
5052;SDS011;2545;50.892;5.740;2022-11-14T16:01:36;9.50;;;6.73;;
5052;SDS011;2545;50.892;5.740;2022-11-14T16:04:01;12.40;;;7.60;;
5052;SDS011;2545;50.892;5.740;2022-11-14T16:06:27;12.10;;;7.23;;
5052;SDS011;2545;50.892;5.740;2022-11-14T16:08:52;13.47;;;8.27;;
5052;SDS011;2545;50.892;5.740;2022-11-14T16:11:17;11.93;;;7.90;;
5052;SDS011;2545;50.892;5.740;2022-11-14T16:13:43;11.70;;;7.40;;
5052;SDS011;2545;50.892;5.740;2022-11-14T16:16:08;10.83;;;7.40;;
5052;SDS011;2545;50.892;5.740;2022-11-14T16:18:33;13.20;;;7.93;;
5052;SDS011;2545;50.892;5.740;2022-11-14T16:20:58;12.47;;;7.40;;
5052;SDS011;2545;50.892;5.740;2022-11-14T16:23:24;10.77;;;7.20;;
5052;SDS011;2545;50.892;5.740;2022-11-14T16:25:49;11.13;;;7.17;;
5052;SDS011;2545;50.892;5.740;2022-11-14T16:28:15;13.10;;;7.03;;
5052;SDS011;2545;50.892;5.740;2022-11-14T16:30:40;11.67;;;7.23;;
5052;SDS011;2545;50.892;5.740;2022-11-14T16:33:06;9.60;;;6.87;;
5052;SDS011;2545;50.892;5.740;2022-11-14T16:35:33;10.33;;;7.20;;
5052;SDS011;2545;50.892;5.740;2022-11-14T16:37:58;12.70;;;7.57;;
5052;SDS011;2545;50.892;5.740;2022-11-14T16:40:25;14.80;;;6.47;;
5052;SDS011;2545;50.892;5.740;2022-11-14T16:42:55;9.53;;;6.10;;
5052;SDS011;2545;50.892;5.740;2022-11-14T16:45:22;14.23;;;7.57;;
5052;SDS011;2545;50.892;5.740;2022-11-14T16:47:48;9.53;;;6.67;;
5052;SDS011;2545;50.892;5.740;2022-11-14T16:50:13;9.30;;;7.07;;
5052;SDS011;2545;50.892;5.740;2022-11-14T16:52:39;16.33;;;7.70;;
5052;SDS011;2545;50.892;5.740;2022-11-14T16:55:05;10.20;;;5.93;;
5052;SDS011;2545;50.892;5.740;2022-11-14T16:57:31;10.90;;;7.60;;
5052;SDS011;2545;50.892;5.740;2022-11-14T16:59:56;14.73;;;7.23;;
5052;SDS011;2545;50.892;5.740;2022-11-14T17:02:22;12.30;;;7.47;;
5052;SDS011;2545;50.892;5.740;2022-11-14T17:04:48;12.20;;;6.37;;
5052;SDS011;2545;50.892;5.740;2022-11-14T17:07:14;13.73;;;8.07;;
5052;SDS011;2545;50.892;5.740;2022-11-14T17:09:39;12.47;;;7.90;;
5052;SDS011;2545;50.892;5.740;2022-11-14T17:12:05;14.87;;;8.40;;
5052;SDS011;2545;50.892;5.740;2022-11-14T17:14:30;11.73;;;7.60;;
5052;SDS011;2545;50.892;5.740;2022-11-14T17:16:55;10.53;;;7.73;;
5052;SDS011;2545;50.892;5.740;2022-11-14T17:19:21;12.63;;;7.97;;
5052;SDS011;2545;50.892;5.740;2022-11-14T17:21:46;10.47;;;7.20;;
5052;SDS011;2545;50.892;5.740;2022-11-14T17:24:11;13.67;;;7.90;;
5052;SDS011;2545;50.892;5.740;2022-11-14T17:26:37;13.00;;;8.07;;
5052;SDS011;2545;50.892;5.740;2022-11-14T17:29:02;11.43;;;8.53;;